Gwinner, ND

10:54 AM CDT on August 21, 2017 (GMT -0500)
Gwinner-melroe

Weather History for KGWR - April, 2013

Change the Weather History Date:

Monday, April 22, 2013

  Actual Average (KP67) Record (KP67)
Temperature  
Mean Temperature 30 °F -  
Max Temperature 33 °F 58 °F 70 °F (1998)
Min Temperature 28 °F 35 °F 35 °F (1998)
Degree Days  
Heating Degree Days 34    
Moisture  
Dew Point 28 °F    
Average Humidity 89    
Maximum Humidity 100    
Minimum Humidity 75    
Precipitation  
Precipitation 0.00 in - - ()
Sea Level Pressure  
Sea Level Pressure 30.29 in    
Wind  
Wind Speed 10 mph (North)    
Max Wind Speed 17 mph    
Max Gust Speed 21 mph    
Visibility 10 miles    
Events      
Averages and records for this station are not official NWS values.
T = Trace of Precipitation, MM = Missing Value Source: NWS Daily Summary

Daily Weather History Graph

Daily Weather History Graph

Search for Another Location

Airport or City:

Trip Planner

Search our weather history database for the weather conditions in past years. The results will help you decide how hot, cold, wet, or windy it might be!

Date:

Astronomy

Apr. 22, 2013 Rise Set
Actual Time 6:31 AM CDT 8:27 PM CDT
Civil Twilight 5:59 AM CDT 8:59 PM CDT
Nautical Twilight 5:19 AM CDT 9:39 PM CDT
Astronomical Twilight 4:36 AM CDT 10:23 PM CDT
Moon 5:08 PM CDT (4/22) 4:37 AM CDT (4/22)
Length of Visible Light 15h 00m
Length of Day
13h 56m
Waxing Gibbous, 88% of the Moon is Illuminated
Apr 22
Waxing Gibbous
Apr 25
Full
May 2
Last Quarter
May 9
New
May 17
First Quarter

Hourly Weather History & Observations

Time (CDT) Temp. Windchill Dew Point Humidity Pressure Visibility Wind Dir Wind Speed Gust Speed Precip Events Conditions
12:15 AM 30.2 °F 24.3 °F 28.4 °F 93% 30.21 in 10.0 mi NW 5.8 mph - 0.00 in   Unknown
12:35 AM 30.2 °F 20.8 °F 28.4 °F 93% 30.22 in 10.0 mi WNW 11.5 mph - 0.00 in   Clear
12:55 AM 30.2 °F 24.3 °F 28.4 °F 93% 30.22 in 10.0 mi NW 5.8 mph - 0.00 in   Clear
1:15 AM 30.2 °F 24.3 °F 28.4 °F 93% 30.21 in 10.0 mi NW 5.8 mph - 0.00 in   Clear
1:35 AM 30.2 °F 22.6 °F 28.4 °F 93% 30.23 in 10.0 mi WNW 8.1 mph - 0.00 in   Unknown
1:55 AM 30.2 °F 22.6 °F 28.4 °F 93% 30.21 in 10.0 mi NNW 8.1 mph - 0.00 in   Unknown
2:15 AM 30.2 °F 20.8 °F 28.4 °F 93% 30.21 in 10.0 mi NNW 11.5 mph - 0.00 in   Clear
2:35 AM 30.2 °F 20.2 °F 28.4 °F 93% 30.21 in 10.0 mi NNW 12.7 mph - 0.00 in   Clear
2:55 AM 30.2 °F 20.8 °F 28.4 °F 93% 30.20 in 10.0 mi NNW 11.5 mph - 0.00 in   Unknown
3:15 AM 30.2 °F 21.3 °F 28.4 °F 93% 30.22 in 10.0 mi NNW 10.4 mph - 0.00 in   Clear
3:35 AM 28.4 °F 19.7 °F 28.4 °F 100% 30.22 in 10.0 mi NNW 9.2 mph - 0.00 in   Unknown
3:55 AM 28.4 °F 21.2 °F 28.4 °F 100% 30.22 in 10.0 mi NNW 6.9 mph - 0.00 in   Unknown
4:15 AM 28.4 °F 22.2 °F 28.4 °F 100% 30.24 in 10.0 mi NNW 5.8 mph - 0.00 in   Clear
4:35 AM 30.2 °F 23.4 °F 28.4 °F 93% 30.24 in 10.0 mi NNW 6.9 mph - 0.00 in   Unknown
4:55 AM 30.2 °F 23.4 °F 28.4 °F 93% 30.25 in 10.0 mi NNW 6.9 mph - 0.00 in   Unknown
5:15 AM 30.2 °F 24.3 °F 28.4 °F 93% 30.25 in 10.0 mi NNW 5.8 mph - 0.00 in   Clear
5:35 AM 30.2 °F 24.3 °F 28.4 °F 93% 30.25 in 10.0 mi NNW 5.8 mph - 0.00 in   Unknown
5:55 AM 30.2 °F 22.6 °F 28.4 °F 93% 30.24 in 10.0 mi North 8.1 mph - 0.00 in   Unknown
6:15 AM 30.2 °F 21.3 °F 28.4 °F 93% 30.25 in 10.0 mi North 10.4 mph - 0.00 in   Unknown
6:35 AM 30.2 °F 20.8 °F 28.4 °F 93% 30.25 in 10.0 mi North 11.5 mph - 0.00 in   Mostly Cloudy
6:55 AM 32.0 °F 22.5 °F 28.4 °F 87% 30.26 in 10.0 mi North 12.7 mph - 0.00 in   Mostly Cloudy
7:15 AM 32.0 °F 22.5 °F 28.4 °F 87% 30.27 in 10.0 mi North 12.7 mph - 0.00 in   Unknown
7:35 AM 32.0 °F 21.6 °F 28.4 °F 87% 30.26 in 10.0 mi North 15.0 mph - 0.00 in   Unknown
7:55 AM 32.0 °F 21.6 °F 28.4 °F 87% 30.27 in 10.0 mi North 15.0 mph - 0.00 in   Clear
8:15 AM 32.0 °F 23.0 °F 28.4 °F 87% 30.30 in 10.0 mi North 11.5 mph - 0.00 in   Clear
8:35 AM 32.0 °F 24.2 °F 28.4 °F 87% 30.31 in 10.0 mi North 9.2 mph - 0.00 in   Unknown
8:55 AM 32.0 °F 24.2 °F 28.4 °F 87% 30.31 in 10.0 mi North 9.2 mph - 0.00 in   Unknown
9:15 AM 32.0 °F 23.0 °F 28.4 °F 87% 30.32 in 10.0 mi North 11.5 mph - 0.00 in   Mostly Cloudy
9:35 AM 32.0 °F 23.0 °F 28.4 °F 87% 30.32 in 10.0 mi North 11.5 mph - 0.00 in   Unknown
9:55 AM 32.0 °F 23.6 °F 28.4 °F 87% 30.31 in 4.0 mi North 10.4 mph - 0.00 in   Unknown
10:15 AM 32.0 °F 22.1 °F 28.4 °F 87% 30.32 in 9.0 mi North 13.8 mph - 0.00 in   Partly Cloudy
10:35 AM 32.0 °F 23.0 °F 28.4 °F 87% 30.31 in 4.0 mi North 11.5 mph - 0.00 in   Unknown
11:15 AM 32.0 °F 22.5 °F 28.4 °F 87% 30.31 in 7.0 mi North 12.7 mph - 0.00 in   Partly Cloudy
11:35 AM 32.0 °F 22.5 °F 30.2 °F 93% 30.31 in 10.0 mi NNE 12.7 mph - 0.00 in   Unknown
11:55 AM 32.0 °F 22.5 °F 30.2 °F 93% 30.32 in 10.0 mi North 12.7 mph - 0.00 in   Unknown
12:15 PM 32.0 °F 22.5 °F 30.2 °F 93% 30.32 in 10.0 mi North 12.7 mph - 0.00 in   Mostly Cloudy
12:35 PM 32.0 °F 23.0 °F 30.2 °F 93% 30.32 in 10.0 mi North 11.5 mph - 0.00 in   Mostly Cloudy
12:55 PM 32.0 °F 23.0 °F 30.2 °F 93% 30.32 in 10.0 mi North 11.5 mph - 0.00 in   Mostly Cloudy
1:15 PM 32.0 °F 23.0 °F 30.2 °F 93% 30.32 in 10.0 mi North 11.5 mph - 0.00 in   Overcast
1:35 PM 33.8 °F 24.3 °F 30.2 °F 87% 30.31 in 10.0 mi North 13.8 mph - 0.00 in   Overcast
1:55 PM 32.0 °F 22.5 °F 30.2 °F 93% 30.31 in 10.0 mi North 12.7 mph - 0.00 in   Overcast
2:15 PM 32.0 °F 22.5 °F 30.2 °F 93% 30.32 in 10.0 mi NNE 12.7 mph - 0.00 in   Overcast
2:35 PM 32.0 °F 22.1 °F 30.2 °F 93% 30.32 in 10.0 mi North 13.8 mph - 0.00 in   Overcast
2:55 PM 32.0 °F 22.1 °F 30.2 °F 93% 30.33 in 10.0 mi North 13.8 mph - 0.00 in   Overcast
3:15 PM 32.0 °F 21.6 °F 30.2 °F 93% 30.32 in 10.0 mi North 15.0 mph - 0.00 in   Overcast
3:35 PM 32.0 °F 21.6 °F 30.2 °F 93% 30.32 in 10.0 mi North 15.0 mph - 0.00 in   Overcast
3:55 PM 32.0 °F 20.8 °F 30.2 °F 93% 30.32 in 10.0 mi North 17.3 mph - 0.00 in   Overcast
4:15 PM 32.0 °F 22.1 °F 30.2 °F 93% 30.32 in 10.0 mi North 13.8 mph - 0.00 in   Overcast
4:35 PM 32.0 °F 21.6 °F 30.2 °F 93% 30.32 in 10.0 mi North 15.0 mph - 0.00 in   Overcast
4:55 PM 32.0 °F 21.6 °F 28.4 °F 87% 30.33 in 10.0 mi North 15.0 mph - 0.00 in   Overcast
5:15 PM 32.0 °F 22.1 °F 28.4 °F 87% 30.32 in 10.0 mi North 13.8 mph - 0.00 in   Unknown
5:35 PM 32.0 °F 22.1 °F 28.4 °F 87% 30.32 in 10.0 mi North 13.8 mph - 0.00 in   Unknown
5:55 PM 32.0 °F 21.6 °F 28.4 °F 87% 30.31 in 10.0 mi North 15.0 mph - 0.00 in   Unknown
6:15 PM 32.0 °F 21.6 °F 26.6 °F 80% 30.32 in 10.0 mi North 15.0 mph - 0.00 in   Overcast
6:35 PM 32.0 °F 21.2 °F 26.6 °F 80% 30.32 in 10.0 mi North 16.1 mph 20.7 mph 0.00 in   Overcast
6:55 PM 32.0 °F 21.6 °F 26.6 °F 80% 30.32 in 10.0 mi North 15.0 mph - 0.00 in   Overcast
7:15 PM 32.0 °F 21.2 °F 26.6 °F 80% 30.32 in 10.0 mi North 16.1 mph 19.6 mph 0.00 in   Unknown
7:35 PM 32.0 °F 21.6 °F 26.6 °F 80% 30.32 in 10.0 mi North 15.0 mph - 0.00 in   Mostly Cloudy
7:55 PM 32.0 °F 22.1 °F 24.8 °F 75% 30.33 in 10.0 mi North 13.8 mph - 0.00 in   Mostly Cloudy
8:15 PM 32.0 °F 23.0 °F 24.8 °F 75% 30.33 in 10.0 mi North 11.5 mph - 0.00 in   Unknown
8:35 PM 32.0 °F 23.0 °F 26.6 °F 80% 30.33 in 10.0 mi North 11.5 mph - 0.00 in   Overcast
8:55 PM 32.0 °F 23.6 °F 28.4 °F 87% 30.34 in 10.0 mi NNW 10.4 mph - 0.00 in   Overcast
9:15 PM 32.0 °F 23.0 °F 26.6 °F 80% 30.35 in 10.0 mi North 11.5 mph - 0.00 in   Unknown
9:35 PM 32.0 °F 24.2 °F 26.6 °F 80% 30.35 in 10.0 mi NNW 9.2 mph - 0.00 in   Overcast
9:55 PM 32.0 °F 24.8 °F 26.6 °F 80% 30.36 in 10.0 mi North 8.1 mph - 0.00 in   Overcast
10:15 PM 32.0 °F 23.6 °F 28.4 °F 87% 30.35 in 5.0 mi NNW 10.4 mph - 0.00 in   Overcast
10:35 PM 32.0 °F 23.6 °F 28.4 °F 87% 30.35 in 10.0 mi North 10.4 mph - 0.00 in   Overcast
10:55 PM 32.0 °F 23.6 °F 28.4 °F 87% 30.35 in 10.0 mi NNW 10.4 mph - 0.00 in   Unknown
11:15 PM 30.2 °F 21.3 °F 28.4 °F 93% 30.35 in 10.0 mi NNW 10.4 mph - 0.00 in   Unknown
11:35 PM 28.4 °F 19.1 °F 26.6 °F 93% 30.35 in 10.0 mi NNW 10.4 mph - 0.00 in   Clear
11:55 PM 28.4 °F 19.1 °F 24.8 °F 86% 30.35 in 10.0 mi NW 10.4 mph - 0.00 in   Unknown